sensor_id;sensor_type;location;lat;lon;timestamp;P1;durP1;ratioP1;P2;durP2;ratioP2
49890;SDS011;35780;55.568;37.492;2022-11-20T00:01:49;10.02;;;6.28;;
49890;SDS011;35780;55.568;37.492;2022-11-20T00:04:14;16.00;;;9.27;;
49890;SDS011;35780;55.568;37.492;2022-11-20T00:06:40;15.05;;;9.25;;
49890;SDS011;35780;55.568;37.492;2022-11-20T00:09:05;11.00;;;7.88;;
49890;SDS011;35780;55.568;37.492;2022-11-20T00:11:31;14.02;;;8.70;;
49890;SDS011;35780;55.568;37.492;2022-11-20T00:13:57;13.65;;;7.50;;
49890;SDS011;35780;55.568;37.492;2022-11-20T00:16:25;6.07;;;4.30;;
49890;SDS011;35780;55.568;37.492;2022-11-20T00:18:51;14.48;;;8.30;;
49890;SDS011;35780;55.568;37.492;2022-11-20T00:21:18;13.85;;;8.80;;
49890;SDS011;35780;55.568;37.492;2022-11-20T00:23:46;15.60;;;8.73;;
49890;SDS011;35780;55.568;37.492;2022-11-20T00:26:13;13.88;;;8.50;;
49890;SDS011;35780;55.568;37.492;2022-11-20T00:28:40;8.48;;;4.45;;
49890;SDS011;35780;55.568;37.492;2022-11-20T00:31:07;14.20;;;9.88;;
49890;SDS011;35780;55.568;37.492;2022-11-20T00:33:34;10.70;;;6.18;;
49890;SDS011;35780;55.568;37.492;2022-11-20T00:36:01;10.75;;;4.85;;
49890;SDS011;35780;55.568;37.492;2022-11-20T00:38:27;11.57;;;7.00;;
49890;SDS011;35780;55.568;37.492;2022-11-20T00:40:59;10.15;;;6.15;;
49890;SDS011;35780;55.568;37.492;2022-11-20T00:43:29;19.67;;;10.52;;
49890;SDS011;35780;55.568;37.492;2022-11-20T00:46:01;11.10;;;6.70;;
49890;SDS011;35780;55.568;37.492;2022-11-20T00:48:27;15.18;;;9.40;;
49890;SDS011;35780;55.568;37.492;2022-11-20T00:50:53;14.70;;;9.15;;
49890;SDS011;35780;55.568;37.492;2022-11-20T00:53:19;10.63;;;6.25;;
49890;SDS011;35780;55.568;37.492;2022-11-20T00:55:52;13.85;;;8.43;;
49890;SDS011;35780;55.568;37.492;2022-11-20T00:58:24;15.85;;;7.60;;
49890;SDS011;35780;55.568;37.492;2022-11-20T01:00:53;16.92;;;9.60;;
49890;SDS011;35780;55.568;37.492;2022-11-20T01:03:35;16.38;;;10.35;;
49890;SDS011;35780;55.568;37.492;2022-11-20T01:06:02;16.38;;;10.73;;
49890;SDS011;35780;55.568;37.492;2022-11-20T01:08:46;16.85;;;9.35;;
49890;SDS011;35780;55.568;37.492;2022-11-20T01:11:14;17.45;;;10.63;;
49890;SDS011;35780;55.568;37.492;2022-11-20T01:13:42;14.55;;;8.70;;
49890;SDS011;35780;55.568;37.492;2022-11-20T01:16:15;15.80;;;9.60;;
49890;SDS011;35780;55.568;37.492;2022-11-20T01:18:45;18.27;;;12.15;;
49890;SDS011;35780;55.568;37.492;2022-11-20T01:21:14;18.27;;;10.63;;
49890;SDS011;35780;55.568;37.492;2022-11-20T01:23:43;12.98;;;8.07;;
49890;SDS011;35780;55.568;37.492;2022-11-20T01:26:11;17.15;;;9.25;;
49890;SDS011;35780;55.568;37.492;2022-11-20T01:28:38;17.92;;;11.43;;
49890;SDS011;35780;55.568;37.492;2022-11-20T01:34:02;15.05;;;10.15;;
49890;SDS011;35780;55.568;37.492;2022-11-20T01:36:30;14.85;;;9.27;;
49890;SDS011;35780;55.568;37.492;2022-11-20T01:38:57;12.80;;;7.20;;
49890;SDS011;35780;55.568;37.492;2022-11-20T01:41:24;18.20;;;11.50;;
49890;SDS011;35780;55.568;37.492;2022-11-20T01:44:10;17.85;;;10.40;;
49890;SDS011;35780;55.568;37.492;2022-11-20T01:46:40;19.77;;;11.95;;
49890;SDS011;35780;55.568;37.492;2022-11-20T01:49:20;14.15;;;7.93;;
49890;SDS011;35780;55.568;37.492;2022-11-20T01:51:50;20.10;;;12.40;;
49890;SDS011;35780;55.568;37.492;2022-11-20T01:54:38;18.77;;;10.95;;
49890;SDS011;35780;55.568;37.492;2022-11-20T01:57:10;20.63;;;13.02;;
49890;SDS011;35780;55.568;37.492;2022-11-20T01:59:38;17.08;;;10.60;;
49890;SDS011;35780;55.568;37.492;2022-11-20T02:02:06;18.77;;;11.95;;
49890;SDS011;35780;55.568;37.492;2022-11-20T02:04:32;18.80;;;11.95;;
49890;SDS011;35780;55.568;37.492;2022-11-20T02:07:00;23.58;;;12.20;;
49890;SDS011;35780;55.568;37.492;2022-11-20T02:09:26;21.13;;;10.73;;
49890;SDS011;35780;55.568;37.492;2022-11-20T02:11:52;18.75;;;11.30;;
49890;SDS011;35780;55.568;37.492;2022-11-20T02:14:19;15.73;;;8.55;;
49890;SDS011;35780;55.568;37.492;2022-11-20T02:16:46;9.25;;;6.28;;
49890;SDS011;35780;55.568;37.492;2022-11-20T02:19:16;18.23;;;9.90;;
49890;SDS011;35780;55.568;37.492;2022-11-20T02:21:47;19.25;;;11.80;;
49890;SDS011;35780;55.568;37.492;2022-11-20T02:24:18;14.85;;;6.57;;
49890;SDS011;35780;55.568;37.492;2022-11-20T02:29:25;19.20;;;11.30;;
49890;SDS011;35780;55.568;37.492;2022-11-20T02:31:52;20.10;;;10.75;;
49890;SDS011;35780;55.568;37.492;2022-11-20T02:34:20;16.15;;;10.00;;
49890;SDS011;35780;55.568;37.492;2022-11-20T02:36:45;16.33;;;9.57;;
49890;SDS011;35780;55.568;37.492;2022-11-20T02:39:11;13.30;;;8.02;;
49890;SDS011;35780;55.568;37.492;2022-11-20T02:41:38;11.18;;;6.65;;
49890;SDS011;35780;55.568;37.492;2022-11-20T02:44:04;13.35;;;7.97;;
49890;SDS011;35780;55.568;37.492;2022-11-20T02:46:31;12.77;;;6.75;;
49890;SDS011;35780;55.568;37.492;2022-11-20T02:49:00;11.63;;;6.75;;
49890;SDS011;35780;55.568;37.492;2022-11-20T02:51:27;11.02;;;6.03;;
49890;SDS011;35780;55.568;37.492;2022-11-20T02:53:52;6.28;;;3.92;;
49890;SDS011;35780;55.568;37.492;2022-11-20T02:56:18;15.07;;;8.63;;
49890;SDS011;35780;55.568;37.492;2022-11-20T02:58:43;12.00;;;7.38;;
49890;SDS011;35780;55.568;37.492;2022-11-20T03:01:09;13.13;;;6.75;;
49890;SDS011;35780;55.568;37.492;2022-11-20T03:03:34;16.20;;;9.25;;
49890;SDS011;35780;55.568;37.492;2022-11-20T03:06:00;13.27;;;8.15;;
49890;SDS011;35780;55.568;37.492;2022-11-20T03:08:26;11.40;;;6.68;;
49890;SDS011;35780;55.568;37.492;2022-11-20T03:10:51;9.55;;;5.80;;
49890;SDS011;35780;55.568;37.492;2022-11-20T03:13:17;9.50;;;4.97;;
49890;SDS011;35780;55.568;37.492;2022-11-20T03:15:43;13.93;;;8.60;;
49890;SDS011;35780;55.568;37.492;2022-11-20T03:18:08;13.15;;;8.43;;
49890;SDS011;35780;55.568;37.492;2022-11-20T03:20:34;13.45;;;8.43;;
49890;SDS011;35780;55.568;37.492;2022-11-20T03:23:00;17.52;;;10.15;;
49890;SDS011;35780;55.568;37.492;2022-11-20T03:25:25;18.08;;;10.60;;
49890;SDS011;35780;55.568;37.492;2022-11-20T03:27:51;13.55;;;8.30;;
49890;SDS011;35780;55.568;37.492;2022-11-20T03:30:17;16.23;;;10.40;;
49890;SDS011;35780;55.568;37.492;2022-11-20T03:32:43;16.08;;;8.20;;
49890;SDS011;35780;55.568;37.492;2022-11-20T03:35:08;11.82;;;6.88;;
49890;SDS011;35780;55.568;37.492;2022-11-20T03:37:34;14.13;;;7.72;;
49890;SDS011;35780;55.568;37.492;2022-11-20T03:40:00;20.55;;;7.35;;
49890;SDS011;35780;55.568;37.492;2022-11-20T03:42:25;15.32;;;7.75;;
49890;SDS011;35780;55.568;37.492;2022-11-20T03:45:09;13.25;;;7.65;;
49890;SDS011;35780;55.568;37.492;2022-11-20T03:47:35;20.45;;;10.63;;
49890;SDS011;35780;55.568;37.492;2022-11-20T03:50:01;11.32;;;7.00;;
49890;SDS011;35780;55.568;37.492;2022-11-20T03:52:28;15.65;;;8.82;;
49890;SDS011;35780;55.568;37.492;2022-11-20T03:54:54;16.52;;;9.73;;
49890;SDS011;35780;55.568;37.492;2022-11-20T03:57:19;14.48;;;7.75;;
49890;SDS011;35780;55.568;37.492;2022-11-20T03:59:45;16.88;;;10.65;;
49890;SDS011;35780;55.568;37.492;2022-11-20T04:02:10;18.63;;;10.82;;
49890;SDS011;35780;55.568;37.492;2022-11-20T04:04:36;18.13;;;8.85;;
49890;SDS011;35780;55.568;37.492;2022-11-20T04:07:01;17.45;;;10.70;;
49890;SDS011;35780;55.568;37.492;2022-11-20T04:09:27;16.38;;;10.82;;
49890;SDS011;35780;55.568;37.492;2022-11-20T04:11:53;15.30;;;9.43;;
49890;SDS011;35780;55.568;37.492;2022-11-20T04:14:18;19.50;;;10.70;;
49890;SDS011;35780;55.568;37.492;2022-11-20T04:16:44;19.83;;;11.35;;
49890;SDS011;35780;55.568;37.492;2022-11-20T04:19:10;16.80;;;10.98;;
49890;SDS011;35780;55.568;37.492;2022-11-20T04:21:37;16.80;;;10.93;;
49890;SDS011;35780;55.568;37.492;2022-11-20T04:24:03;17.33;;;10.27;;
49890;SDS011;35780;55.568;37.492;2022-11-20T04:26:29;17.15;;;10.65;;
49890;SDS011;35780;55.568;37.492;2022-11-20T04:28:55;20.25;;;11.15;;
49890;SDS011;35780;55.568;37.492;2022-11-20T04:31:22;16.95;;;10.10;;
49890;SDS011;35780;55.568;37.492;2022-11-20T04:33:50;18.02;;;9.02;;
49890;SDS011;35780;55.568;37.492;2022-11-20T04:36:19;15.88;;;9.43;;
49890;SDS011;35780;55.568;37.492;2022-11-20T04:38:54;18.92;;;10.55;;
49890;SDS011;35780;55.568;37.492;2022-11-20T04:41:24;15.57;;;9.00;;
49890;SDS011;35780;55.568;37.492;2022-11-20T04:43:51;18.67;;;9.75;;
49890;SDS011;35780;55.568;37.492;2022-11-20T04:46:18;17.85;;;10.85;;
49890;SDS011;35780;55.568;37.492;2022-11-20T04:48:45;19.52;;;11.43;;
49890;SDS011;35780;55.568;37.492;2022-11-20T04:51:10;20.25;;;10.80;;
49890;SDS011;35780;55.568;37.492;2022-11-20T04:53:36;19.33;;;10.75;;
49890;SDS011;35780;55.568;37.492;2022-11-20T04:56:06;18.52;;;11.38;;
49890;SDS011;35780;55.568;37.492;2022-11-20T04:58:33;18.38;;;10.70;;
49890;SDS011;35780;55.568;37.492;2022-11-20T05:01:02;19.17;;;11.07;;
49890;SDS011;35780;55.568;37.492;2022-11-20T05:03:28;16.85;;;9.68;;
49890;SDS011;35780;55.568;37.492;2022-11-20T05:05:54;17.38;;;9.80;;
49890;SDS011;35780;55.568;37.492;2022-11-20T05:08:20;16.80;;;10.52;;
49890;SDS011;35780;55.568;37.492;2022-11-20T05:10:45;18.35;;;10.38;;
49890;SDS011;35780;55.568;37.492;2022-11-20T05:13:11;15.13;;;9.68;;
49890;SDS011;35780;55.568;37.492;2022-11-20T05:15:36;17.33;;;9.65;;
49890;SDS011;35780;55.568;37.492;2022-11-20T05:18:02;16.20;;;9.98;;
49890;SDS011;35780;55.568;37.492;2022-11-20T05:20:27;16.15;;;9.27;;
49890;SDS011;35780;55.568;37.492;2022-11-20T05:22:56;18.00;;;10.88;;
49890;SDS011;35780;55.568;37.492;2022-11-20T05:25:22;21.55;;;10.32;;
49890;SDS011;35780;55.568;37.492;2022-11-20T05:27:47;18.83;;;9.98;;
49890;SDS011;35780;55.568;37.492;2022-11-20T05:30:13;14.00;;;7.20;;
49890;SDS011;35780;55.568;37.492;2022-11-20T05:32:39;17.27;;;10.27;;
49890;SDS011;35780;55.568;37.492;2022-11-20T05:35:04;18.92;;;10.60;;
49890;SDS011;35780;55.568;37.492;2022-11-20T05:37:30;17.83;;;9.20;;
49890;SDS011;35780;55.568;37.492;2022-11-20T05:39:56;18.10;;;10.43;;
49890;SDS011;35780;55.568;37.492;2022-11-20T05:42:21;19.05;;;10.48;;
49890;SDS011;35780;55.568;37.492;2022-11-20T05:44:56;20.27;;;12.20;;
49890;SDS011;35780;55.568;37.492;2022-11-20T05:47:23;12.23;;;6.30;;
49890;SDS011;35780;55.568;37.492;2022-11-20T05:49:48;23.25;;;10.93;;
49890;SDS011;35780;55.568;37.492;2022-11-20T05:52:14;25.08;;;11.70;;
49890;SDS011;35780;55.568;37.492;2022-11-20T05:54:39;24.15;;;12.70;;
49890;SDS011;35780;55.568;37.492;2022-11-20T05:57:05;21.67;;;11.90;;
49890;SDS011;35780;55.568;37.492;2022-11-20T05:59:30;21.73;;;11.95;;
49890;SDS011;35780;55.568;37.492;2022-11-20T06:01:56;9.88;;;6.03;;
49890;SDS011;35780;55.568;37.492;2022-11-20T06:04:22;24.30;;;13.45;;
49890;SDS011;35780;55.568;37.492;2022-11-20T06:06:47;25.45;;;15.07;;
49890;SDS011;35780;55.568;37.492;2022-11-20T06:09:13;23.52;;;13.55;;
49890;SDS011;35780;55.568;37.492;2022-11-20T06:11:38;20.83;;;11.85;;
49890;SDS011;35780;55.568;37.492;2022-11-20T06:14:04;19.40;;;12.60;;
49890;SDS011;35780;55.568;37.492;2022-11-20T06:16:29;28.17;;;11.57;;
49890;SDS011;35780;55.568;37.492;2022-11-20T06:18:55;23.25;;;13.60;;
49890;SDS011;35780;55.568;37.492;2022-11-20T06:21:21;25.85;;;13.95;;
49890;SDS011;35780;55.568;37.492;2022-11-20T06:23:47;22.55;;;12.07;;
49890;SDS011;35780;55.568;37.492;2022-11-20T06:26:15;24.52;;;12.38;;
49890;SDS011;35780;55.568;37.492;2022-11-20T06:28:42;25.77;;;13.25;;
49890;SDS011;35780;55.568;37.492;2022-11-20T06:31:09;21.25;;;11.80;;
49890;SDS011;35780;55.568;37.492;2022-11-20T06:33:36;18.75;;;8.43;;
49890;SDS011;35780;55.568;37.492;2022-11-20T06:36:02;19.52;;;10.45;;
49890;SDS011;35780;55.568;37.492;2022-11-20T06:38:29;28.02;;;14.20;;
49890;SDS011;35780;55.568;37.492;2022-11-20T06:40:55;23.63;;;12.55;;
49890;SDS011;35780;55.568;37.492;2022-11-20T06:43:21;24.45;;;12.48;;
49890;SDS011;35780;55.568;37.492;2022-11-20T06:45:51;24.67;;;11.88;;
49890;SDS011;35780;55.568;37.492;2022-11-20T06:48:20;22.00;;;12.77;;
49890;SDS011;35780;55.568;37.492;2022-11-20T06:50:46;26.58;;;14.30;;
49890;SDS011;35780;55.568;37.492;2022-11-20T06:53:12;20.65;;;12.38;;
49890;SDS011;35780;55.568;37.492;2022-11-20T06:55:41;26.35;;;14.68;;
49890;SDS011;35780;55.568;37.492;2022-11-20T06:58:10;24.27;;;13.95;;
49890;SDS011;35780;55.568;37.492;2022-11-20T07:00:36;22.35;;;12.30;;
49890;SDS011;35780;55.568;37.492;2022-11-20T07:03:06;24.77;;;14.82;;
49890;SDS011;35780;55.568;37.492;2022-11-20T07:05:33;23.58;;;14.43;;
49890;SDS011;35780;55.568;37.492;2022-11-20T07:07:59;23.65;;;12.50;;
49890;SDS011;35780;55.568;37.492;2022-11-20T07:10:25;23.48;;;13.40;;
49890;SDS011;35780;55.568;37.492;2022-11-20T07:12:51;24.08;;;14.20;;
49890;SDS011;35780;55.568;37.492;2022-11-20T07:15:18;23.73;;;14.48;;
49890;SDS011;35780;55.568;37.492;2022-11-20T07:17:44;25.92;;;15.25;;
49890;SDS011;35780;55.568;37.492;2022-11-20T07:20:09;26.05;;;14.50;;
49890;SDS011;35780;55.568;37.492;2022-11-20T07:22:35;25.83;;;14.80;;
49890;SDS011;35780;55.568;37.492;2022-11-20T07:25:02;25.88;;;15.43;;
49890;SDS011;35780;55.568;37.492;2022-11-20T07:27:29;26.38;;;14.18;;
49890;SDS011;35780;55.568;37.492;2022-11-20T07:29:54;26.17;;;14.68;;
49890;SDS011;35780;55.568;37.492;2022-11-20T07:32:20;27.50;;;14.55;;
49890;SDS011;35780;55.568;37.492;2022-11-20T07:34:46;25.45;;;15.57;;
49890;SDS011;35780;55.568;37.492;2022-11-20T07:37:12;26.10;;;15.25;;
49890;SDS011;35780;55.568;37.492;2022-11-20T07:39:38;22.10;;;12.85;;
49890;SDS011;35780;55.568;37.492;2022-11-20T07:42:03;29.92;;;17.17;;
49890;SDS011;35780;55.568;37.492;2022-11-20T07:44:29;27.83;;;16.17;;
49890;SDS011;35780;55.568;37.492;2022-11-20T07:46:55;29.33;;;16.10;;
49890;SDS011;35780;55.568;37.492;2022-11-20T07:49:20;30.33;;;15.50;;
49890;SDS011;35780;55.568;37.492;2022-11-20T07:51:46;29.75;;;14.27;;
49890;SDS011;35780;55.568;37.492;2022-11-20T07:54:11;26.42;;;14.60;;
49890;SDS011;35780;55.568;37.492;2022-11-20T07:56:36;24.55;;;15.55;;
49890;SDS011;35780;55.568;37.492;2022-11-20T07:59:03;26.35;;;16.10;;
49890;SDS011;35780;55.568;37.492;2022-11-20T08:01:28;27.98;;;13.98;;
49890;SDS011;35780;55.568;37.492;2022-11-20T08:03:54;29.85;;;16.00;;
49890;SDS011;35780;55.568;37.492;2022-11-20T08:06:19;33.20;;;17.73;;
49890;SDS011;35780;55.568;37.492;2022-11-20T08:08:45;29.70;;;15.63;;
49890;SDS011;35780;55.568;37.492;2022-11-20T08:11:10;30.10;;;16.67;;
49890;SDS011;35780;55.568;37.492;2022-11-20T08:13:54;31.15;;;17.25;;
49890;SDS011;35780;55.568;37.492;2022-11-20T08:16:46;27.27;;;15.52;;
49890;SDS011;35780;55.568;37.492;2022-11-20T08:19:13;34.70;;;16.75;;
49890;SDS011;35780;55.568;37.492;2022-11-20T08:21:39;32.58;;;16.73;;
49890;SDS011;35780;55.568;37.492;2022-11-20T08:24:05;32.35;;;17.15;;
49890;SDS011;35780;55.568;37.492;2022-11-20T08:26:31;31.58;;;17.55;;
49890;SDS011;35780;55.568;37.492;2022-11-20T08:28:57;29.15;;;16.92;;
49890;SDS011;35780;55.568;37.492;2022-11-20T08:31:23;34.20;;;19.55;;
49890;SDS011;35780;55.568;37.492;2022-11-20T08:33:50;30.13;;;16.60;;
49890;SDS011;35780;55.568;37.492;2022-11-20T08:36:16;34.78;;;18.17;;
49890;SDS011;35780;55.568;37.492;2022-11-20T08:38:42;34.58;;;17.77;;
49890;SDS011;35780;55.568;37.492;2022-11-20T08:41:07;36.38;;;18.20;;
49890;SDS011;35780;55.568;37.492;2022-11-20T08:43:48;31.83;;;15.73;;
49890;SDS011;35780;55.568;37.492;2022-11-20T08:46:14;31.92;;;18.38;;
49890;SDS011;35780;55.568;37.492;2022-11-20T08:48:40;38.03;;;19.50;;
49890;SDS011;35780;55.568;37.492;2022-11-20T08:51:06;38.80;;;19.20;;
49890;SDS011;35780;55.568;37.492;2022-11-20T08:53:31;38.25;;;19.85;;
49890;SDS011;35780;55.568;37.492;2022-11-20T08:55:57;35.63;;;18.70;;
49890;SDS011;35780;55.568;37.492;2022-11-20T08:58:23;37.78;;;17.58;;
49890;SDS011;35780;55.568;37.492;2022-11-20T09:00:49;48.10;;;21.80;;
49890;SDS011;35780;55.568;37.492;2022-11-20T09:03:14;37.65;;;16.30;;
49890;SDS011;35780;55.568;37.492;2022-11-20T09:05:40;42.45;;;20.38;;
49890;SDS011;35780;55.568;37.492;2022-11-20T09:08:05;40.17;;;19.45;;
49890;SDS011;35780;55.568;37.492;2022-11-20T09:10:31;66.80;;;23.63;;
49890;SDS011;35780;55.568;37.492;2022-11-20T09:12:57;35.05;;;18.10;;
49890;SDS011;35780;55.568;37.492;2022-11-20T09:15:24;35.63;;;17.27;;
49890;SDS011;35780;55.568;37.492;2022-11-20T09:17:51;39.95;;;21.60;;
49890;SDS011;35780;55.568;37.492;2022-11-20T09:20:17;42.65;;;19.20;;
49890;SDS011;35780;55.568;37.492;2022-11-20T09:22:43;42.78;;;20.55;;
49890;SDS011;35780;55.568;37.492;2022-11-20T09:25:09;46.15;;;23.30;;
49890;SDS011;35780;55.568;37.492;2022-11-20T09:27:35;49.60;;;22.55;;
49890;SDS011;35780;55.568;37.492;2022-11-20T09:30:00;48.38;;;21.52;;
49890;SDS011;35780;55.568;37.492;2022-11-20T09:32:26;42.42;;;21.77;;
49890;SDS011;35780;55.568;37.492;2022-11-20T09:34:52;47.80;;;24.80;;
49890;SDS011;35780;55.568;37.492;2022-11-20T09:37:17;53.90;;;23.70;;
49890;SDS011;35780;55.568;37.492;2022-11-20T09:39:43;58.30;;;26.25;;
49890;SDS011;35780;55.568;37.492;2022-11-20T09:55:31;41.92;;;19.67;;
49890;SDS011;35780;55.568;37.492;2022-11-20T09:57:57;44.25;;;20.58;;
49890;SDS011;35780;55.568;37.492;2022-11-20T10:00:23;48.42;;;20.67;;
49890;SDS011;35780;55.568;37.492;2022-11-20T10:02:53;39.90;;;21.52;;
49890;SDS011;35780;55.568;37.492;2022-11-20T10:05:40;43.38;;;21.33;;
49890;SDS011;35780;55.568;37.492;2022-11-20T10:10:52;34.53;;;19.48;;
49890;SDS011;35780;55.568;37.492;2022-11-20T10:16:20;40.47;;;21.73;;
49890;SDS011;35780;55.568;37.492;2022-11-20T10:19:11;38.38;;;19.30;;
49890;SDS011;35780;55.568;37.492;2022-11-20T10:29:55;38.85;;;20.45;;
49890;SDS011;35780;55.568;37.492;2022-11-20T10:32:28;42.40;;;20.35;;
49890;SDS011;35780;55.568;37.492;2022-11-20T10:34:59;30.60;;;14.73;;
49890;SDS011;35780;55.568;37.492;2022-11-20T10:37:29;28.20;;;16.33;;
49890;SDS011;35780;55.568;37.492;2022-11-20T10:42:30;28.30;;;16.48;;
49890;SDS011;35780;55.568;37.492;2022-11-20T10:45:15;34.17;;;17.30;;
49890;SDS011;35780;55.568;37.492;2022-11-20T10:47:41;36.67;;;17.38;;
49890;SDS011;35780;55.568;37.492;2022-11-20T10:50:11;31.60;;;16.90;;
49890;SDS011;35780;55.568;37.492;2022-11-20T10:55:33;22.00;;;14.05;;
49890;SDS011;35780;55.568;37.492;2022-11-20T10:58:10;20.45;;;12.90;;
49890;SDS011;35780;55.568;37.492;2022-11-20T11:00:39;22.83;;;14.02;;
49890;SDS011;35780;55.568;37.492;2022-11-20T11:03:22;18.83;;;11.82;;
49890;SDS011;35780;55.568;37.492;2022-11-20T11:06:08;19.50;;;11.18;;
49890;SDS011;35780;55.568;37.492;2022-11-20T11:08:38;21.67;;;12.88;;
49890;SDS011;35780;55.568;37.492;2022-11-20T11:11:27;28.27;;;15.30;;
49890;SDS011;35780;55.568;37.492;2022-11-20T11:14:07;19.75;;;13.07;;
49890;SDS011;35780;55.568;37.492;2022-11-20T11:16:35;22.52;;;13.20;;
49890;SDS011;35780;55.568;37.492;2022-11-20T11:19:10;20.33;;;12.05;;
49890;SDS011;35780;55.568;37.492;2022-11-20T11:21:37;23.63;;;12.52;;
49890;SDS011;35780;55.568;37.492;2022-11-20T11:24:14;22.88;;;13.20;;
49890;SDS011;35780;55.568;37.492;2022-11-20T11:29:29;18.33;;;9.30;;
49890;SDS011;35780;55.568;37.492;2022-11-20T11:32:03;19.58;;;12.00;;
49890;SDS011;35780;55.568;37.492;2022-11-20T11:34:30;20.15;;;8.57;;
49890;SDS011;35780;55.568;37.492;2022-11-20T11:36:57;21.98;;;13.15;;
49890;SDS011;35780;55.568;37.492;2022-11-20T11:39:24;20.85;;;12.93;;
49890;SDS011;35780;55.568;37.492;2022-11-20T11:41:50;21.13;;;12.27;;
49890;SDS011;35780;55.568;37.492;2022-11-20T11:47:10;16.92;;;10.73;;
49890;SDS011;35780;55.568;37.492;2022-11-20T11:52:17;20.67;;;12.00;;
49890;SDS011;35780;55.568;37.492;2022-11-20T11:54:55;23.50;;;12.43;;
49890;SDS011;35780;55.568;37.492;2022-11-20T11:57:23;19.08;;;11.98;;
49890;SDS011;35780;55.568;37.492;2022-11-20T12:00:08;17.58;;;9.73;;
49890;SDS011;35780;55.568;37.492;2022-11-20T12:05:40;21.73;;;12.73;;
49890;SDS011;35780;55.568;37.492;2022-11-20T12:13:47;23.02;;;13.57;;
49890;SDS011;35780;55.568;37.492;2022-11-20T12:18:48;25.15;;;13.73;;
49890;SDS011;35780;55.568;37.492;2022-11-20T12:27:35;26.70;;;15.07;;
49890;SDS011;35780;55.568;37.492;2022-11-20T12:30:17;25.70;;;14.57;;
49890;SDS011;35780;55.568;37.492;2022-11-20T12:46:57;25.00;;;14.48;;
49890;SDS011;35780;55.568;37.492;2022-11-20T12:49:37;22.75;;;14.15;;
49890;SDS011;35780;55.568;37.492;2022-11-20T12:52:47;23.67;;;14.27;;
49890;SDS011;35780;55.568;37.492;2022-11-20T12:55:38;20.73;;;11.80;;
49890;SDS011;35780;55.568;37.492;2022-11-20T13:01:08;25.38;;;14.93;;
49890;SDS011;35780;55.568;37.492;2022-11-20T13:04:05;24.30;;;13.90;;
49890;SDS011;35780;55.568;37.492;2022-11-20T13:06:38;24.38;;;14.40;;
49890;SDS011;35780;55.568;37.492;2022-11-20T13:09:08;17.35;;;10.90;;
49890;SDS011;35780;55.568;37.492;2022-11-20T13:16:54;26.98;;;15.02;;
49890;SDS011;35780;55.568;37.492;2022-11-20T13:19:29;23.70;;;15.20;;
49890;SDS011;35780;55.568;37.492;2022-11-20T13:21:55;25.33;;;14.90;;
49890;SDS011;35780;55.568;37.492;2022-11-20T13:29:40;22.15;;;14.32;;
49890;SDS011;35780;55.568;37.492;2022-11-20T13:32:16;22.33;;;14.75;;
49890;SDS011;35780;55.568;37.492;2022-11-20T13:34:53;23.67;;;14.50;;
49890;SDS011;35780;55.568;37.492;2022-11-20T13:37:37;23.85;;;15.30;;
49890;SDS011;35780;55.568;37.492;2022-11-20T13:40:05;26.85;;;15.48;;
49890;SDS011;35780;55.568;37.492;2022-11-20T13:42:31;26.02;;;14.98;;
49890;SDS011;35780;55.568;37.492;2022-11-20T13:45:32;26.23;;;15.20;;
49890;SDS011;35780;55.568;37.492;2022-11-20T13:47:57;23.63;;;14.88;;
49890;SDS011;35780;55.568;37.492;2022-11-20T13:50:39;26.48;;;14.75;;
49890;SDS011;35780;55.568;37.492;2022-11-20T13:56:18;27.20;;;16.17;;
49890;SDS011;35780;55.568;37.492;2022-11-20T14:01:24;28.88;;;16.58;;
49890;SDS011;35780;55.568;37.492;2022-11-20T14:03:51;27.23;;;15.82;;
49890;SDS011;35780;55.568;37.492;2022-11-20T14:06:25;28.25;;;16.40;;
49890;SDS011;35780;55.568;37.492;2022-11-20T14:08:52;26.25;;;15.80;;
49890;SDS011;35780;55.568;37.492;2022-11-20T14:11:19;27.63;;;16.10;;
49890;SDS011;35780;55.568;37.492;2022-11-20T14:13:56;31.75;;;16.95;;
49890;SDS011;35780;55.568;37.492;2022-11-20T14:16:24;25.15;;;15.70;;
49890;SDS011;35780;55.568;37.492;2022-11-20T14:18:50;28.27;;;15.57;;
49890;SDS011;35780;55.568;37.492;2022-11-20T14:21:28;27.20;;;16.13;;
49890;SDS011;35780;55.568;37.492;2022-11-20T14:24:04;27.67;;;16.60;;
49890;SDS011;35780;55.568;37.492;2022-11-20T14:26:31;24.02;;;15.20;;
49890;SDS011;35780;55.568;37.492;2022-11-20T14:28:57;23.27;;;14.27;;
49890;SDS011;35780;55.568;37.492;2022-11-20T14:31:23;30.13;;;15.00;;
49890;SDS011;35780;55.568;37.492;2022-11-20T14:33:51;26.13;;;14.32;;
49890;SDS011;35780;55.568;37.492;2022-11-20T14:36:18;24.50;;;15.43;;
49890;SDS011;35780;55.568;37.492;2022-11-20T14:38:45;29.70;;;14.60;;
49890;SDS011;35780;55.568;37.492;2022-11-20T14:41:16;22.05;;;13.70;;
49890;SDS011;35780;55.568;37.492;2022-11-20T14:43:47;29.60;;;17.10;;
49890;SDS011;35780;55.568;37.492;2022-11-20T14:46:16;26.83;;;14.77;;
49890;SDS011;35780;55.568;37.492;2022-11-20T14:51:11;26.77;;;15.52;;
49890;SDS011;35780;55.568;37.492;2022-11-20T14:53:48;27.17;;;14.82;;
49890;SDS011;35780;55.568;37.492;2022-11-20T14:56:13;25.58;;;13.50;;
49890;SDS011;35780;55.568;37.492;2022-11-20T14:58:54;23.00;;;15.05;;
49890;SDS011;35780;55.568;37.492;2022-11-20T15:01:25;26.17;;;16.25;;
49890;SDS011;35780;55.568;37.492;2022-11-20T15:04:01;25.75;;;14.68;;
49890;SDS011;35780;55.568;37.492;2022-11-20T15:06:31;28.10;;;15.93;;
49890;SDS011;35780;55.568;37.492;2022-11-20T15:08:56;31.08;;;15.63;;
49890;SDS011;35780;55.568;37.492;2022-11-20T15:11:27;25.33;;;15.88;;
49890;SDS011;35780;55.568;37.492;2022-11-20T15:13:58;27.75;;;15.68;;
49890;SDS011;35780;55.568;37.492;2022-11-20T15:16:28;25.92;;;16.67;;
49890;SDS011;35780;55.568;37.492;2022-11-20T15:18:53;24.55;;;14.48;;
49890;SDS011;35780;55.568;37.492;2022-11-20T15:21:20;35.53;;;16.17;;
49890;SDS011;35780;55.568;37.492;2022-11-20T15:23:46;26.75;;;14.85;;
49890;SDS011;35780;55.568;37.492;2022-11-20T15:26:12;27.48;;;15.88;;
49890;SDS011;35780;55.568;37.492;2022-11-20T15:28:40;30.90;;;15.57;;
49890;SDS011;35780;55.568;37.492;2022-11-20T15:31:09;22.08;;;12.30;;
49890;SDS011;35780;55.568;37.492;2022-11-20T15:33:37;23.92;;;12.30;;
49890;SDS011;35780;55.568;37.492;2022-11-20T15:36:03;25.63;;;14.43;;
49890;SDS011;35780;55.568;37.492;2022-11-20T15:38:29;28.00;;;17.65;;
49890;SDS011;35780;55.568;37.492;2022-11-20T15:40:54;24.88;;;13.88;;
49890;SDS011;35780;55.568;37.492;2022-11-20T15:43:20;27.13;;;15.93;;
49890;SDS011;35780;55.568;37.492;2022-11-20T15:45:46;31.60;;;15.32;;
49890;SDS011;35780;55.568;37.492;2022-11-20T15:48:24;29.92;;;14.98;;
49890;SDS011;35780;55.568;37.492;2022-11-20T15:53:39;29.70;;;16.33;;
49890;SDS011;35780;55.568;37.492;2022-11-20T15:56:09;30.20;;;15.82;;
49890;SDS011;35780;55.568;37.492;2022-11-20T15:58:37;27.95;;;16.67;;
49890;SDS011;35780;55.568;37.492;2022-11-20T16:01:03;29.15;;;16.20;;
49890;SDS011;35780;55.568;37.492;2022-11-20T16:03:28;27.55;;;15.05;;